createdAt,value
2022-09-12T00:01:23.629Z,97763.38
2022-09-12T00:03:58.273Z,97759.44
2022-09-12T00:06:30.228Z,97758.78
2022-09-12T00:09:02.220Z,97752.53
2022-09-12T00:11:30.548Z,97745.28
2022-09-12T00:14:00.797Z,97750.25
2022-09-12T00:16:31.989Z,97747.97
2022-09-12T00:19:00.780Z,97751.06
2022-09-12T00:21:28.694Z,97746.94
2022-09-12T00:23:56.805Z,97746.31
2022-09-12T00:26:24.889Z,97752.28
2022-09-12T00:28:52.952Z,97747.94
2022-09-12T00:31:25.355Z,97748.16
2022-09-12T00:33:56.618Z,97745.84
2022-09-12T00:36:26.770Z,97738.81
2022-09-12T00:38:55.176Z,97747.72
2022-09-12T00:41:32.819Z,97742.13
2022-09-12T00:44:10.791Z,97744.19
2022-09-12T00:47:07.588Z,97742.75
2022-09-12T00:50:00.987Z,97738.41
2022-09-12T00:52:43.966Z,97740.69
2022-09-12T00:55:24.355Z,97733.22
2022-09-12T00:58:00.239Z,97731.13
2022-09-12T01:00:28.968Z,97729.47
2022-09-12T01:03:07.890Z,97724.31
2022-09-12T01:05:40.189Z,97720.75
2022-09-12T01:08:08.045Z,97722.00
2022-09-12T01:10:37.963Z,97725.53
2022-09-12T01:13:09.212Z,97717.06
2022-09-12T01:15:39.725Z,97718.72
2022-09-12T01:18:32.810Z,97717.72
2022-09-12T01:21:56.046Z,97710.69
2022-09-12T01:24:51.686Z,97702.41
2022-09-12T01:27:57.717Z,97700.53
2022-09-12T01:30:56.268Z,97696.81
2022-09-12T01:33:55.572Z,97696.59
2022-09-12T01:36:29.605Z,97698.91
2022-09-12T01:39:25.116Z,97694.34
2022-09-12T01:42:04.090Z,97697.44
2022-09-12T01:45:03.467Z,97700.53
2022-09-12T01:47:46.822Z,97702.63
2022-09-12T01:50:27.400Z,97696.19
2022-09-12T01:53:04.795Z,97688.50
2022-09-12T01:55:46.376Z,97695.34
2022-09-12T01:58:22.590Z,97689.09
2022-09-12T02:01:11.331Z,97679.78
2022-09-12T02:03:52.439Z,97681.84
2022-09-12T02:06:40.261Z,97683.09
2022-09-12T02:09:35.888Z,97678.72
2022-09-12T02:12:06.242Z,97684.53
2022-09-12T02:14:52.060Z,97678.72
2022-09-12T02:17:26.328Z,97674.78
2022-09-12T02:20:03.491Z,97674.97
2022-09-12T02:22:34.124Z,97674.34
2022-09-12T02:25:05.941Z,97668.94
2022-09-12T02:27:44.794Z,97667.91
2022-09-12T02:30:17.688Z,97675.75
2022-09-12T02:33:01.908Z,97667.69
2022-09-12T02:36:15.436Z,97667.47
2022-09-12T02:38:48.046Z,97667.47
2022-09-12T02:41:20.807Z,97668.06
2022-09-12T02:43:50.800Z,97666.00
2022-09-12T02:46:47.181Z,97665.75
2022-09-12T02:49:16.934Z,97665.56
2022-09-12T02:51:46.674Z,97659.91
2022-09-12T02:54:17.686Z,97657.66
2022-09-12T02:56:46.628Z,97659.50
2022-09-12T02:59:19.427Z,97660.72
2022-09-12T03:02:14.988Z,97649.16
2022-09-12T03:05:23.223Z,97656.16
2022-09-12T03:08:37.428Z,97654.91
2022-09-12T03:12:02.318Z,97659.63
2022-09-12T03:15:20.757Z,97658.59
2022-09-12T03:18:43.786Z,97661.69
2022-09-12T03:21:45.863Z,97662.13
2022-09-12T03:24:38.181Z,97659.44
2022-09-12T03:27:16.725Z,97663.78
2022-09-12T03:29:47.976Z,97665.84
2022-09-12T03:32:16.221Z,97656.13
2022-09-12T03:34:44.068Z,97657.16
2022-09-12T03:37:11.822Z,97655.28
2022-09-12T03:39:39.702Z,97664.19
2022-09-12T03:42:07.650Z,97660.88
2022-09-12T03:44:35.390Z,97663.94
2022-09-12T03:47:04.074Z,97667.03
2022-09-12T03:49:32.992Z,97666.19
2022-09-12T03:52:00.840Z,97658.34
2022-09-12T03:54:28.722Z,97666.63
2022-09-12T03:56:56.472Z,97662.06
2022-09-12T03:59:24.198Z,97667.44
2022-09-12T04:01:52.003Z,97670.31
2022-09-12T04:04:19.786Z,97664.50
2022-09-12T04:06:47.528Z,97664.31
2022-09-12T04:09:15.365Z,97659.13
2022-09-12T04:11:43.072Z,97655.81
2022-09-12T04:14:10.919Z,97655.19
2022-09-12T04:16:38.734Z,97658.91
2022-09-12T04:19:06.561Z,97659.09
2022-09-12T04:21:34.600Z,97658.28
2022-09-12T04:24:02.619Z,97654.94
2022-09-12T04:26:31.796Z,97661.53
2022-09-12T04:28:59.552Z,97660.09
2022-09-12T04:31:27.636Z,97662.97
2022-09-12T04:33:58.005Z,97658.59
2022-09-12T04:36:28.025Z,97662.53
2022-09-12T04:38:56.355Z,97658.59
2022-09-12T04:41:28.518Z,97659.63
2022-09-12T04:44:02.177Z,97656.94
2022-09-12T04:46:33.677Z,97658.97
2022-09-12T04:49:02.013Z,97652.31
2022-09-12T04:51:36.292Z,97657.25
2022-09-12T04:54:15.178Z,97652.28
2022-09-12T04:56:46.373Z,97650.00
2022-09-12T04:59:16.244Z,97644.25
2022-09-12T05:01:44.083Z,97642.19
2022-09-12T05:04:13.353Z,97639.94
2022-09-12T05:06:42.654Z,97639.53
2022-09-12T05:09:14.154Z,97647.22
2022-09-12T05:12:03.621Z,97637.69
2022-09-12T05:14:33.094Z,97640.81
2022-09-12T05:17:02.031Z,97637.28
2022-09-12T05:19:31.078Z,97648.88
2022-09-12T05:21:59.617Z,97651.56
2022-09-12T05:24:27.618Z,97650.50
2022-09-12T05:26:55.365Z,97652.97
2022-09-12T05:29:25.267Z,97653.59
2022-09-12T05:31:53.269Z,97657.94
2022-09-12T05:34:21.650Z,97657.75
2022-09-12T05:36:49.558Z,97656.28
2022-09-12T05:39:18.566Z,97652.97
2022-09-12T05:41:47.364Z,97656.50
2022-09-12T05:44:15.377Z,97653.41
2022-09-12T05:46:45.647Z,97666.25
2022-09-12T05:49:14.675Z,97659.47
2022-09-12T05:51:45.478Z,97659.28
2022-09-12T05:54:18.107Z,97664.69
2022-09-12T05:56:47.297Z,97660.38
2022-09-12T05:59:21.245Z,97665.19
2022-09-12T06:01:49.292Z,97660.66
2022-09-12T06:04:17.618Z,97661.28
2022-09-12T06:06:46.949Z,97661.72
2022-09-12T06:09:17.346Z,97656.78
2022-09-12T06:11:46.567Z,97653.91
2022-09-12T06:14:16.884Z,97652.47
2022-09-12T06:16:46.324Z,97656.59
2022-09-12T06:19:20.260Z,97657.22
2022-09-12T06:21:49.785Z,97660.38
2022-09-12T06:24:18.996Z,97657.09
2022-09-12T06:26:52.716Z,97653.59
2022-09-12T06:29:20.563Z,97658.22
2022-09-12T06:31:48.343Z,97660.03
2022-09-12T06:34:16.613Z,97661.28
2022-09-12T06:36:47.575Z,97655.72
2022-09-12T06:39:18.782Z,97659.84
2022-09-12T06:41:48.797Z,97661.28
2022-09-12T06:44:22.500Z,97658.66
2022-09-12T06:46:50.705Z,97660.50
2022-09-12T06:49:18.596Z,97660.13
2022-09-12T06:51:46.420Z,97668.59
2022-09-12T06:54:17.015Z,97655.16
2022-09-12T06:56:45.334Z,97668.63
2022-09-12T06:59:13.775Z,97663.25
2022-09-12T07:01:42.103Z,97662.44
2022-09-12T07:04:10.599Z,97651.66
2022-09-12T07:06:41.981Z,97656.25
2022-09-12T07:09:14.053Z,97656.03
2022-09-12T07:11:42.998Z,97655.41
2022-09-12T07:14:14.080Z,97657.28
2022-09-12T07:16:42.682Z,97661.47
2022-09-12T07:19:12.517Z,97666.22
2022-09-12T07:21:41.255Z,97662.25
2022-09-12T07:24:10.887Z,97667.88
2022-09-12T07:26:40.791Z,97670.97
2022-09-12T07:29:35.927Z,97664.53
2022-09-12T07:32:06.610Z,97667.84
2022-09-12T07:34:34.863Z,97669.06
2022-09-12T07:37:02.701Z,97662.25
2022-09-12T07:39:30.467Z,97660.78
2022-09-12T07:45:42.235Z,97664.94
2022-09-12T07:48:10.629Z,97665.38
2022-09-12T07:50:44.535Z,97662.22
2022-09-12T07:53:13.137Z,97663.63
2022-09-12T07:55:40.858Z,97662.38
2022-09-12T07:58:08.627Z,97664.00
2022-09-12T08:00:37.942Z,97663.38
2022-09-12T08:03:07.359Z,97652.94
2022-09-12T08:05:35.268Z,97662.47
2022-09-12T08:08:03.658Z,97659.50
2022-09-12T08:10:31.568Z,97662.16
2022-09-12T08:12:59.540Z,97666.25
2022-09-12T08:15:27.410Z,97664.38
2022-09-12T08:17:55.260Z,97655.59
2022-09-12T08:20:27.693Z,97658.06
2022-09-12T08:22:56.520Z,97656.97
2022-09-12T08:25:24.256Z,97664.41
2022-09-12T08:27:52.279Z,97669.38
2022-09-12T08:30:20.125Z,97666.22
2022-09-12T08:32:47.950Z,97669.13
2022-09-12T08:35:16.037Z,97666.38
2022-09-12T08:37:43.822Z,97661.38
2022-09-12T08:40:17.090Z,97666.69
2022-09-12T08:43:08.500Z,97660.19
2022-09-12T08:45:54.295Z,97666.00
2022-09-12T08:48:22.289Z,97657.47
2022-09-12T08:50:50.228Z,97655.34
2022-09-12T08:53:24.626Z,97656.34
2022-09-12T08:55:58.791Z,97657.94
2022-09-12T08:58:29.130Z,97648.34
2022-09-12T09:01:24.713Z,97651.81
2022-09-12T09:04:33.072Z,97652.34
2022-09-12T09:07:40.919Z,97655.59
2022-09-12T09:10:28.136Z,97655.28
2022-09-12T09:14:05.579Z,97655.66
2022-09-12T09:16:41.265Z,97650.56
2022-09-12T09:19:18.301Z,97652.38
2022-09-12T09:22:17.217Z,97653.34
2022-09-12T09:25:02.595Z,97651.19
2022-09-12T09:27:54.545Z,97653.78
2022-09-12T09:30:22.283Z,97655.13
2022-09-12T09:32:56.018Z,97652.31
2022-09-12T09:35:46.578Z,97648.69
2022-09-12T09:38:49.306Z,97650.75
2022-09-12T09:42:11.623Z,97649.22
2022-09-12T09:44:39.707Z,97643.38
2022-09-12T09:47:12.609Z,97649.97
2022-09-12T09:49:40.861Z,97646.69
2022-09-12T09:52:11.985Z,97649.31
2022-09-12T09:54:43.462Z,97642.75
2022-09-12T09:57:36.195Z,97643.84
2022-09-12T10:00:32.471Z,97647.25
2022-09-12T10:03:13.191Z,97637.16
2022-09-12T10:06:18.804Z,97637.03
2022-09-12T10:08:48.023Z,97648.59
2022-09-12T10:11:15.762Z,97647.91
2022-09-12T10:13:54.539Z,97645.53
2022-09-12T10:16:31.765Z,97637.88
2022-09-12T10:19:02.841Z,97634.22
2022-09-12T10:21:47.586Z,97627.88
2022-09-12T10:24:34.070Z,97628.38
2022-09-12T10:27:13.340Z,97628.47
2022-09-12T10:29:54.649Z,97631.75
2022-09-12T10:32:31.371Z,97624.47
2022-09-12T10:35:30.514Z,97624.47
2022-09-12T10:38:10.846Z,97620.78
2022-09-12T10:40:43.129Z,97619.59
2022-09-12T10:43:42.374Z,97614.88
2022-09-12T10:46:19.394Z,97620.38
2022-09-12T10:49:11.811Z,97619.94
2022-09-12T10:51:39.549Z,97619.53
2022-09-12T10:54:13.097Z,97606.31
2022-09-12T10:57:32.034Z,97612.28
2022-09-12T11:00:20.182Z,97602.22
2022-09-12T11:03:17.768Z,97603.06
2022-09-12T11:05:52.276Z,97593.94
2022-09-12T11:09:20.285Z,97595.34
2022-09-12T11:12:09.697Z,97587.06
2022-09-12T11:15:21.515Z,97583.38
2022-09-12T11:18:13.978Z,97570.94
2022-09-12T11:21:12.005Z,97576.19
2022-09-12T11:24:13.849Z,97562.47
2022-09-12T11:27:38.071Z,97570.22
2022-09-12T11:30:15.771Z,97573.59
2022-09-12T11:33:25.452Z,97566.94
2022-09-12T11:35:55.802Z,97566.53
2022-09-12T11:38:40.578Z,97567.69
2022-09-12T11:41:23.390Z,97556.31
2022-09-12T11:43:58.846Z,97554.50
2022-09-12T11:46:38.177Z,97548.31
2022-09-12T11:49:17.050Z,97554.06
2022-09-12T11:52:08.806Z,97549.00
2022-09-12T11:54:38.458Z,97543.66
2022-09-12T11:57:23.681Z,97551.91
2022-09-12T12:00:18.304Z,97547.66
2022-09-12T12:03:07.022Z,97557.53
2022-09-12T12:05:37.650Z,97553.25
2022-09-12T12:08:06.633Z,97544.81
2022-09-12T12:10:49.986Z,97538.94
2022-09-12T12:13:55.293Z,97537.69
2022-09-12T12:16:37.756Z,97534.53
2022-09-12T12:19:34.313Z,97529.72
2022-09-12T12:22:24.429Z,97530.31
2022-09-12T12:25:29.015Z,97529.28
2022-09-12T12:28:02.155Z,97515.81
2022-09-12T12:30:29.906Z,97524.06
2022-09-12T12:33:27.307Z,97516.25
2022-09-12T12:36:01.031Z,97521.59
2022-09-12T12:38:30.923Z,97516.44
2022-09-12T12:41:17.235Z,97514.34
2022-09-12T12:43:56.561Z,97509.75
2022-09-12T12:46:27.641Z,97499.19
2022-09-12T12:49:20.593Z,97498.97
2022-09-12T12:51:54.025Z,97501.50
2022-09-12T12:54:41.138Z,97492.03
2022-09-12T12:57:18.002Z,97495.16
2022-09-12T13:00:16.182Z,97492.19
2022-09-12T13:02:59.754Z,97491.91
2022-09-12T13:05:31.261Z,97491.16
2022-09-12T13:08:11.506Z,97486.53
2022-09-12T13:10:48.744Z,97472.41
2022-09-12T13:13:34.083Z,97474.59
2022-09-12T13:16:02.382Z,97476.81
2022-09-12T13:18:48.326Z,97473.56
2022-09-12T13:21:21.756Z,97465.13
2022-09-12T13:24:17.174Z,97471.72
2022-09-12T13:26:47.576Z,97468.44
2022-09-12T13:29:19.776Z,97459.16
2022-09-12T13:31:58.069Z,97458.09
2022-09-12T13:34:41.733Z,97459.50
2022-09-12T13:38:04.140Z,97457.56
2022-09-12T13:41:13.876Z,97449.09
2022-09-12T13:43:47.645Z,97446.88
2022-09-12T13:46:31.386Z,97435.13
2022-09-12T13:49:05.873Z,97438.91
2022-09-12T13:51:34.149Z,97435.88
2022-09-12T13:54:05.389Z,97441.59
2022-09-12T13:56:33.280Z,97442.66
2022-09-12T13:59:03.057Z,97434.13
2022-09-12T14:01:44.327Z,97439.00
2022-09-12T14:04:36.957Z,97428.03
2022-09-12T14:07:22.467Z,97428.78
2022-09-12T14:10:00.074Z,97422.19
2022-09-12T14:12:32.782Z,97421.56
2022-09-12T14:15:01.023Z,97416.31
2022-09-12T14:17:36.187Z,97416.25
2022-09-12T14:20:18.553Z,97412.06
2022-09-12T14:22:50.912Z,97413.59
2022-09-12T14:25:25.924Z,97418.50
2022-09-12T14:27:56.665Z,97403.63
2022-09-12T14:30:32.914Z,97406.00
2022-09-12T14:33:12.893Z,97403.97
2022-09-12T14:35:49.980Z,97409.06
2022-09-12T14:38:17.576Z,97399.63
2022-09-12T14:40:49.277Z,97395.13
2022-09-12T14:43:31.618Z,97391.16
2022-09-12T14:46:15.887Z,97395.44
2022-09-12T14:48:53.357Z,97396.53
2022-09-12T14:51:28.709Z,97394.53
2022-09-12T14:53:56.617Z,97394.72
2022-09-12T14:56:44.158Z,97394.03
2022-09-12T14:59:36.247Z,97390.94
2022-09-12T15:02:23.168Z,97387.34
2022-09-12T15:04:52.310Z,97379.09
2022-09-12T15:07:41.903Z,97380.13
2022-09-12T15:10:31.454Z,97370.72
2022-09-12T15:13:12.050Z,97373.16
2022-09-12T15:15:42.879Z,97366.63
2022-09-12T15:18:10.940Z,97369.09
2022-09-12T15:20:41.543Z,97371.22
2022-09-12T15:23:30.046Z,97365.16
2022-09-12T15:25:57.844Z,97370.03
2022-09-12T15:28:26.929Z,97365.66
2022-09-12T15:30:57.046Z,97362.13
2022-09-12T15:33:25.906Z,97359.94
2022-09-12T15:35:53.849Z,97360.75
2022-09-12T15:38:25.762Z,97358.63
2022-09-12T15:40:54.723Z,97359.72
2022-09-12T15:43:23.447Z,97355.38
2022-09-12T15:45:52.353Z,97349.34
2022-09-12T15:48:21.308Z,97347.78
2022-09-12T15:50:49.233Z,97345.09
2022-09-12T15:53:18.181Z,97338.91
2022-09-12T15:55:46.199Z,97336.59
2022-09-12T15:58:14.174Z,97341.50
2022-09-12T16:00:41.940Z,97339.75
2022-09-12T16:03:25.592Z,97330.88
2022-09-12T16:05:58.644Z,97330.75
2022-09-12T16:08:26.766Z,97333.44
2022-09-12T16:11:02.061Z,97334.72
2022-09-12T16:13:30.058Z,97330.19
2022-09-12T16:15:59.424Z,97334.69
2022-09-12T16:18:28.335Z,97326.84
2022-09-12T16:20:57.261Z,97325.00
2022-09-12T16:23:25.320Z,97317.38
2022-09-12T16:26:05.713Z,97324.03
2022-09-12T16:28:33.898Z,97320.88
2022-09-12T16:31:05.573Z,97322.31
2022-09-12T16:33:33.939Z,97319.09
2022-09-12T16:36:11.002Z,97328.78
2022-09-12T16:38:47.652Z,97323.94
2022-09-12T16:41:17.773Z,97317.44
2022-09-12T16:44:11.225Z,97311.72
2022-09-12T16:46:39.048Z,97309.84
2022-09-12T16:49:07.158Z,97315.91
2022-09-12T16:51:37.984Z,97311.59
2022-09-12T16:54:05.732Z,97319.00
2022-09-12T16:56:33.515Z,97319.28
2022-09-12T16:59:01.263Z,97311.38
2022-09-12T17:01:29.091Z,97305.66
2022-09-12T17:03:58.824Z,97311.13
2022-09-12T17:06:27.855Z,97310.88
2022-09-12T17:09:00.865Z,97313.88
2022-09-12T17:11:36.522Z,97306.22
2022-09-12T17:14:08.827Z,97318.75
2022-09-12T17:16:46.917Z,97311.13
2022-09-12T17:19:28.154Z,97324.75
2022-09-12T17:21:57.534Z,97318.72
2022-09-12T17:24:25.897Z,97312.97
2022-09-12T17:26:53.876Z,97308.31
2022-09-12T17:29:21.612Z,97309.94
2022-09-12T17:31:49.407Z,97315.63
2022-09-12T17:34:17.834Z,97314.75
2022-09-12T17:36:48.452Z,97318.00
2022-09-12T17:39:16.379Z,97308.94
2022-09-12T17:41:46.095Z,97316.84
2022-09-12T17:44:15.145Z,97311.06
2022-09-12T17:46:43.574Z,97317.28
2022-09-12T17:49:17.353Z,97319.69
2022-09-12T17:51:45.522Z,97323.69
2022-09-12T17:54:16.698Z,97326.38
2022-09-12T17:56:46.600Z,97323.28
2022-09-12T17:59:20.606Z,97319.16
2022-09-12T18:02:07.605Z,97328.06
2022-09-12T18:04:36.302Z,97326.66
2022-09-12T18:07:04.430Z,97327.38
2022-09-12T18:09:32.705Z,97331.41
2022-09-12T18:12:00.486Z,97334.56
2022-09-12T18:14:28.667Z,97331.47
2022-09-12T18:17:00.341Z,97330.03
2022-09-12T18:19:28.401Z,97329.16
2022-09-12T18:21:56.521Z,97338.59
2022-09-12T18:24:24.627Z,97345.59
2022-09-12T18:26:52.434Z,97342.25
2022-09-12T18:29:20.616Z,97345.19
2022-09-12T18:31:48.746Z,97335.88
2022-09-12T18:34:18.205Z,97343.97
2022-09-12T18:36:49.562Z,97336.56
2022-09-12T18:39:18.525Z,97333.22
2022-09-12T18:41:46.480Z,97333.63
2022-09-12T18:44:14.269Z,97332.22
2022-09-12T18:46:42.127Z,97338.38
2022-09-12T18:49:10.719Z,97332.88
2022-09-12T18:51:40.238Z,97333.63
2022-09-12T18:54:14.016Z,97340.06
2022-09-12T18:56:43.965Z,97335.66
2022-09-12T18:59:14.152Z,97330.38
2022-09-12T19:01:43.003Z,97337.41
2022-09-12T19:04:13.017Z,97337.06
2022-09-12T19:06:44.569Z,97338.63
2022-09-12T19:09:15.469Z,97343.16
2022-09-12T19:11:49.646Z,97347.41
2022-09-12T19:14:42.909Z,97349.56
2022-09-12T19:17:11.097Z,97345.47
2022-09-12T19:19:40.688Z,97351.63
2022-09-12T19:22:08.526Z,97339.13
2022-09-12T19:24:36.248Z,97338.31
2022-09-12T19:27:05.213Z,97349.41
2022-09-12T19:29:33.048Z,97344.22
2022-09-12T19:32:00.769Z,97340.13
2022-09-12T19:34:28.559Z,97334.69
2022-09-12T19:36:56.440Z,97333.03
2022-09-12T19:39:24.162Z,97330.31
2022-09-12T19:41:51.884Z,97329.50
2022-09-12T19:44:20.217Z,97332.81
2022-09-12T19:46:48.397Z,97332.56
2022-09-12T19:49:16.240Z,97335.84
2022-09-12T19:51:44.033Z,97329.84
2022-09-12T19:54:11.830Z,97332.81
2022-09-12T19:56:39.611Z,97325.13
2022-09-12T19:59:07.418Z,97325.72
2022-09-12T20:01:37.243Z,97324.91
2022-09-12T20:04:06.780Z,97326.56
2022-09-12T20:06:35.275Z,97334.94
2022-09-12T20:09:03.252Z,97328.59
2022-09-12T20:11:31.552Z,97322.50
2022-09-12T20:13:59.575Z,97327.59
2022-09-12T20:16:31.225Z,97325.66
2022-09-12T20:19:03.870Z,97325.56
2022-09-12T20:21:34.159Z,97316.84
2022-09-12T20:24:14.537Z,97314.88
2022-09-12T20:26:43.060Z,97310.44
2022-09-12T20:29:11.181Z,97304.69
2022-09-12T20:31:41.606Z,97301.28
2022-09-12T20:34:17.531Z,97299.91
2022-09-12T20:36:46.243Z,97299.09
2022-09-12T20:39:22.741Z,97296.13
2022-09-12T20:41:50.992Z,97299.66
2022-09-12T20:44:18.900Z,97295.06
2022-09-12T20:46:47.024Z,97301.53
2022-09-12T20:49:14.769Z,97297.44
2022-09-12T20:51:43.013Z,97299.31
2022-09-12T20:54:11.370Z,97291.69
2022-09-12T20:56:39.141Z,97291.88
2022-09-12T20:59:07.078Z,97296.28
2022-09-12T21:01:34.918Z,97294.38
2022-09-12T21:04:03.462Z,97297.56
2022-09-12T21:06:32.407Z,97295.34
2022-09-12T21:09:00.560Z,97303.47
2022-09-12T21:11:29.210Z,97296.16
2022-09-12T21:13:57.912Z,97292.88
2022-09-12T21:16:25.763Z,97291.47
2022-09-12T21:19:00.161Z,97288.19
2022-09-12T21:21:27.979Z,97294.66
2022-09-12T21:24:05.598Z,97291.13
2022-09-12T21:26:33.344Z,97301.97
2022-09-12T21:29:01.442Z,97301.63
2022-09-12T21:31:29.245Z,97294.47
2022-09-12T21:33:57.083Z,97286.75
2022-09-12T21:36:25.241Z,97285.72
2022-09-12T21:38:53.093Z,97291.31
2022-09-12T21:41:20.860Z,97292.28
2022-09-12T21:43:48.696Z,97295.94
2022-09-12T21:46:16.662Z,97282.19
2022-09-12T21:48:44.412Z,97292.34
2022-09-12T21:51:12.160Z,97283.16
2022-09-12T21:53:40.233Z,97276.81
2022-09-12T21:56:08.964Z,97281.88
2022-09-12T21:58:37.714Z,97275.28
2022-09-12T22:01:08.648Z,97272.94
2022-09-12T22:03:36.670Z,97276.81
2022-09-12T22:06:06.828Z,97277.38
2022-09-12T22:08:37.266Z,97268.22
2022-09-12T22:11:09.700Z,97271.50
2022-09-12T22:13:43.926Z,97271.50
2022-09-12T22:16:12.713Z,97268.78
2022-09-12T22:18:41.082Z,97251.72
2022-09-12T22:21:16.199Z,97246.88
2022-09-12T22:24:02.620Z,97235.72
2022-09-12T22:26:35.032Z,97237.84
2022-09-12T22:29:02.788Z,97235.63
2022-09-12T22:31:31.049Z,97227.16
2022-09-12T22:33:59.042Z,97235.66
2022-09-12T22:36:31.007Z,97240.25
2022-09-12T22:38:59.786Z,97236.47
2022-09-12T22:41:28.509Z,97232.72
2022-09-12T22:43:57.425Z,97233.28
2022-09-12T22:46:25.579Z,97232.44
2022-09-12T22:48:55.696Z,97236.00
2022-09-12T22:51:23.613Z,97241.41
2022-09-12T22:53:51.887Z,97236.56
2022-09-12T22:56:19.699Z,97228.47
2022-09-12T22:58:47.785Z,97239.75
2022-09-12T23:01:15.788Z,97244.81
2022-09-12T23:03:43.717Z,97239.19
2022-09-12T23:06:12.260Z,97245.09
2022-09-12T23:08:40.254Z,97250.38
2022-09-12T23:11:12.899Z,97258.53
2022-09-12T23:13:44.861Z,97260.16
2022-09-12T23:16:25.886Z,97253.47
2022-09-12T23:18:53.813Z,97245.66
2022-09-12T23:21:22.330Z,97244.84
2022-09-12T23:23:50.501Z,97245.44
2022-09-12T23:26:21.730Z,97237.56
2022-09-12T23:28:56.118Z,97241.09
2022-09-12T23:31:29.806Z,97227.22
2022-09-12T23:34:02.078Z,97230.50
2022-09-12T23:36:30.516Z,97227.00
2022-09-12T23:38:58.442Z,97222.41
2022-09-12T23:41:26.308Z,97216.16
2022-09-12T23:43:54.447Z,97212.63
2022-09-12T23:46:22.691Z,97209.09
2022-09-12T23:48:53.219Z,97208.06
2022-09-12T23:51:24.024Z,97216.41
2022-09-12T23:53:51.781Z,97226.16
2022-09-12T23:56:19.577Z,97224.75
2022-09-12T23:58:47.645Z,97223.34
